SIA830 WSSS-ZSPD
Flight info
| Callsign | SIA830 |
|---|---|
| Flight time | N/A |
| Altitude | 36000 |
| Route | VMR9B VMR M771 DOLOX/N0495F390 M771 DUDIS/K0915F390 M771 DOSUT/N0491F400 M771 DULOP/N0490F390 Q1 CARSO DCT NOBAD DCT SANKU/N0493F400 DCT SOUSA/N0490F390 V601 DOTMI/K0904S1190 A470 LJG B221 SHZ W58 BK BK82A |
| Aircraft | A388/J-SADE2E3FGHIJ3J4J5M1RWXY/LB1D1 |
Departure
| Time | 2026-05-05 11:30 |
|---|---|
| Airport | Singapore Changi Airport (WSSS) |
Arrival
| Time | N/A |
|---|---|
| Airport | Shanghai Pudong International Airport (ZSPD) |
| Time | Latitude | Longitude | Altitude | Speed | Heading |
|---|---|---|---|---|---|
| 2026-05-05 11:01 | 1.35776 | 103.98519 | 30 ft | 0 kts | 72° |
| 2026-05-05 11:17 | 1.35774 | 103.98511 | 30 ft | 4 kts | 72° |
| 2026-05-05 11:17 | 1.35765 | 103.98486 | 29 ft | 4 kts | 71° |
| 2026-05-05 11:17 | 1.35756 | 103.98460 | 28 ft | 4 kts | 69° |
| 2026-05-05 11:17 | 1.35745 | 103.98436 | 27 ft | 4 kts | 65° |
| 2026-05-05 11:18 | 1.35733 | 103.98412 | 28 ft | 4 kts | 58° |
| 2026-05-05 11:18 | 1.35717 | 103.98391 | 27 ft | 4 kts | 43° |
| 2026-05-05 11:18 | 1.35700 | 103.98380 | 27 ft | 1 kts | 23° |
| 2026-05-05 11:21 | 1.35712 | 103.98385 | 28 ft | 5 kts | 22° |
| 2026-05-05 11:21 | 1.35770 | 103.98410 | 30 ft | 12 kts | 22° |
| 2026-05-05 11:21 | 1.35869 | 103.98451 | 30 ft | 16 kts | 22° |
| 2026-05-05 11:21 | 1.35971 | 103.98493 | 30 ft | 16 kts | 22° |
| 2026-05-05 11:22 | 1.36088 | 103.98543 | 30 ft | 20 kts | 22° |
| 2026-05-05 11:22 | 1.36218 | 103.98597 | 30 ft | 20 kts | 21° |
| 2026-05-05 11:22 | 1.36340 | 103.98648 | 30 ft | 15 kts | 22° |
| 2026-05-05 11:22 | 1.36434 | 103.98687 | 30 ft | 14 kts | 22° |
| 2026-05-05 11:23 | 1.36537 | 103.98730 | 30 ft | 18 kts | 22° |
| 2026-05-05 11:23 | 1.36612 | 103.98762 | 30 ft | 18 kts | 22° |
| 2026-05-05 11:23 | 1.36723 | 103.98808 | 30 ft | 19 kts | 22° |
| 2026-05-05 11:23 | 1.36845 | 103.98859 | 30 ft | 18 kts | 22° |
| 2026-05-05 11:24 | 1.36944 | 103.98902 | 30 ft | 8 kts | 38° |
| 2026-05-05 11:24 | 1.36947 | 103.98980 | 30 ft | 17 kts | 122° |
| 2026-05-05 11:24 | 1.36908 | 103.99069 | 30 ft | 14 kts | 112° |
| 2026-05-05 11:24 | 1.36869 | 103.99158 | 30 ft | 14 kts | 113° |
| 2026-05-05 11:25 | 1.36831 | 103.99247 | 30 ft | 14 kts | 112° |
| 2026-05-05 11:25 | 1.36793 | 103.99336 | 30 ft | 14 kts | 112° |
| 2026-05-05 11:25 | 1.36756 | 103.99425 | 30 ft | 14 kts | 113° |
| 2026-05-05 11:25 | 1.36717 | 103.99515 | 30 ft | 14 kts | 113° |
| 2026-05-05 11:26 | 1.36679 | 103.99603 | 30 ft | 14 kts | 113° |
| 2026-05-05 11:26 | 1.36642 | 103.99691 | 30 ft | 14 kts | 113° |
| 2026-05-05 11:26 | 1.36607 | 103.99773 | 30 ft | 9 kts | 113° |
| 2026-05-05 11:26 | 1.36576 | 103.99825 | 30 ft | 8 kts | 145° |
| 2026-05-05 11:27 | 1.36527 | 103.99834 | 30 ft | 6 kts | 205° |
| 2026-05-05 11:27 | 1.36487 | 103.99817 | 30 ft | 7 kts | 204° |
| 2026-05-05 11:27 | 1.36441 | 103.99802 | 30 ft | 7 kts | 176° |
| 2026-05-05 11:27 | 1.36399 | 103.99828 | 30 ft | 8 kts | 134° |
| 2026-05-05 11:28 | 1.36349 | 103.99863 | 30 ft | 9 kts | 165° |
| 2026-05-05 11:28 | 1.36280 | 103.99872 | 31 ft | 11 kts | 174° |
| 2026-05-05 11:28 | 1.36210 | 103.99881 | 31 ft | 10 kts | 173° |
| 2026-05-05 11:28 | 1.36133 | 103.99871 | 31 ft | 9 kts | 201° |
| 2026-05-05 11:29 | 1.36093 | 103.99856 | 31 ft | 31 kts | 202° |
| 2026-05-05 11:29 | 1.35648 | 103.99667 | 34 ft | 107 kts | 203° |
| 2026-05-05 11:29 | 1.34780 | 103.99301 | 35 ft | 160 kts | 204° |
| 2026-05-05 11:29 | 1.33703 | 103.98804 | 323 ft | 167 kts | 207° |
| 2026-05-05 11:30 | 1.32675 | 103.98321 | 905 ft | 167 kts | 202° |
| 2026-05-05 11:30 | 1.31565 | 103.97884 | 1343 ft | 173 kts | 200° |
| 2026-05-05 11:30 | 1.30434 | 103.97445 | 1783 ft | 179 kts | 200° |
| 2026-05-05 11:30 | 1.29231 | 103.96959 | 1969 ft | 194 kts | 201° |
| 2026-05-05 11:31 | 1.27924 | 103.96408 | 2112 ft | 212 kts | 202° |
| 2026-05-05 11:31 | 1.26528 | 103.95810 | 2234 ft | 225 kts | 202° |
| 2026-05-05 11:31 | 1.25011 | 103.95174 | 2412 ft | 248 kts | 199° |
| 2026-05-05 11:31 | 1.23249 | 103.94948 | 2776 ft | 266 kts | 171° |
| 2026-05-05 11:32 | 1.21549 | 103.95643 | 3570 ft | 267 kts | 142° |
| 2026-05-05 11:32 | 1.20157 | 103.96858 | 4319 ft | 272 kts | 137° |
| 2026-05-05 11:32 | 1.18738 | 103.98127 | 5091 ft | 276 kts | 138° |
| 2026-05-05 11:32 | 1.17281 | 103.99437 | 5877 ft | 279 kts | 133° |
| 2026-05-05 11:33 | 1.16286 | 104.01057 | 6659 ft | 280 kts | 107° |
| 2026-05-05 11:33 | 1.16103 | 104.02983 | 7390 ft | 282 kts | 81° |
| 2026-05-05 11:33 | 1.16795 | 104.04818 | 8093 ft | 286 kts | 56° |
| 2026-05-05 11:33 | 1.18032 | 104.06387 | 8795 ft | 290 kts | 50° |
| 2026-05-05 11:34 | 1.19367 | 104.07913 | 9522 ft | 293 kts | 45° |
| 2026-05-05 11:34 | 1.20943 | 104.09221 | 10179 ft | 297 kts | 34° |
| 2026-05-05 11:34 | 1.22786 | 104.10293 | 10443 ft | 316 kts | 28° |
| 2026-05-05 11:34 | 1.24781 | 104.11366 | 10618 ft | 334 kts | 26° |
| 2026-05-05 11:35 | 1.27063 | 104.12014 | 10863 ft | 350 kts | 4° |
| 2026-05-05 11:35 | 1.29491 | 104.11749 | 11456 ft | 355 kts | 343° |
| 2026-05-05 11:35 | 1.31691 | 104.10626 | 12072 ft | 359 kts | 323° |
| 2026-05-05 11:35 | 1.33619 | 104.09018 | 12640 ft | 364 kts | 320° |
| 2026-05-05 11:36 | 1.35548 | 104.07354 | 13227 ft | 367 kts | 320° |
| 2026-05-05 11:36 | 1.37491 | 104.05683 | 13806 ft | 371 kts | 320° |
| 2026-05-05 11:36 | 1.39463 | 104.04003 | 14331 ft | 374 kts | 322° |
| 2026-05-05 11:36 | 1.41617 | 104.02529 | 14849 ft | 376 kts | 332° |
| 2026-05-05 11:37 | 1.43996 | 104.01421 | 15387 ft | 378 kts | 341° |
| 2026-05-05 11:37 | 1.46512 | 104.00615 | 15892 ft | 382 kts | 344° |
| 2026-05-05 11:37 | 1.49022 | 103.99818 | 16410 ft | 385 kts | 343° |
| 2026-05-05 11:37 | 1.51583 | 103.98988 | 16898 ft | 389 kts | 343° |
| 2026-05-05 11:38 | 1.54166 | 103.98147 | 17408 ft | 392 kts | 343° |
| 2026-05-05 11:38 | 1.56768 | 103.97301 | 17891 ft | 395 kts | 343° |
| 2026-05-05 11:38 | 1.59395 | 103.96448 | 18342 ft | 399 kts | 343° |
| 2026-05-05 11:38 | 1.62045 | 103.95589 | 18776 ft | 401 kts | 343° |
| 2026-05-05 11:39 | 1.64705 | 103.94728 | 19190 ft | 403 kts | 343° |
| 2026-05-05 11:39 | 1.67380 | 103.93861 | 19618 ft | 406 kts | 343° |
| 2026-05-05 11:39 | 1.70079 | 103.92987 | 20027 ft | 408 kts | 343° |
| 2026-05-05 11:39 | 1.72787 | 103.92110 | 20430 ft | 410 kts | 343° |
| 2026-05-05 11:40 | 1.75550 | 103.91366 | 20830 ft | 412 kts | 350° |
| 2026-05-05 11:40 | 1.78390 | 103.90992 | 21234 ft | 413 kts | 358° |
| 2026-05-05 11:40 | 1.81269 | 103.90835 | 21617 ft | 415 kts | 358° |
| 2026-05-05 11:40 | 1.84164 | 103.90659 | 22009 ft | 418 kts | 358° |
| 2026-05-05 11:41 | 1.87072 | 103.90471 | 22391 ft | 420 kts | 357° |
| 2026-05-05 11:41 | 1.90006 | 103.90280 | 22770 ft | 423 kts | 357° |
| 2026-05-05 11:41 | 1.92953 | 103.90090 | 23148 ft | 425 kts | 357° |
| 2026-05-05 11:41 | 1.95884 | 103.89902 | 23496 ft | 428 kts | 357° |
| 2026-05-05 11:42 | 1.98862 | 103.89712 | 23810 ft | 430 kts | 357° |
| 2026-05-05 11:42 | 2.01852 | 103.89521 | 24119 ft | 432 kts | 358° |
| 2026-05-05 11:42 | 2.04864 | 103.89330 | 24430 ft | 434 kts | 358° |
| 2026-05-05 11:42 | 2.07892 | 103.89137 | 24734 ft | 436 kts | 358° |
| 2026-05-05 11:43 | 2.10932 | 103.88943 | 25040 ft | 438 kts | 358° |
| 2026-05-05 11:43 | 2.13983 | 103.88749 | 25349 ft | 441 kts | 358° |
| 2026-05-05 11:43 | 2.17052 | 103.88553 | 25657 ft | 443 kts | 358° |
| 2026-05-05 11:43 | 2.20138 | 103.88356 | 25975 ft | 445 kts | 358° |
| 2026-05-05 11:44 | 2.23239 | 103.88159 | 26284 ft | 447 kts | 358° |
| 2026-05-05 11:44 | 2.26349 | 103.87961 | 26634 ft | 449 kts | 358° |
| 2026-05-05 11:44 | 2.29481 | 103.87761 | 26957 ft | 452 kts | 358° |
| 2026-05-05 11:44 | 2.32622 | 103.87561 | 27280 ft | 454 kts | 358° |
| 2026-05-05 11:45 | 2.35792 | 103.87465 | 27612 ft | 456 kts | 5° |
| 2026-05-05 11:45 | 2.38917 | 103.87968 | 27975 ft | 456 kts | 17° |
| 2026-05-05 11:45 | 2.41872 | 103.89099 | 28329 ft | 456 kts | 28° |
| 2026-05-05 11:45 | 2.44597 | 103.90738 | 28695 ft | 458 kts | 34° |
| 2026-05-05 11:46 | 2.47307 | 103.92443 | 29078 ft | 461 kts | 33° |
| 2026-05-05 11:46 | 2.50035 | 103.94139 | 29463 ft | 464 kts | 33° |
| 2026-05-05 11:46 | 2.52786 | 103.95847 | 29856 ft | 467 kts | 33° |
| 2026-05-05 11:46 | 2.55556 | 103.97566 | 30230 ft | 470 kts | 33° |
| 2026-05-05 11:47 | 2.58340 | 103.99297 | 30617 ft | 472 kts | 33° |
| 2026-05-05 11:47 | 2.61135 | 104.01036 | 30971 ft | 475 kts | 33° |
| 2026-05-05 11:47 | 2.63914 | 104.02765 | 31311 ft | 478 kts | 33° |
| 2026-05-05 11:47 | 2.66745 | 104.04527 | 31694 ft | 481 kts | 33° |
| 2026-05-05 11:48 | 2.72468 | 104.08090 | 32439 ft | 486 kts | 33° |
| 2026-05-05 11:48 | 2.75349 | 104.09883 | 32798 ft | 489 kts | 33° |
| 2026-05-05 11:48 | 2.78244 | 104.11686 | 33161 ft | 492 kts | 33° |
| 2026-05-05 11:49 | 2.81162 | 104.13502 | 33518 ft | 495 kts | 33° |
| 2026-05-05 11:49 | 2.84095 | 104.15329 | 33862 ft | 498 kts | 33° |
| 2026-05-05 11:49 | 2.87040 | 104.17163 | 34189 ft | 500 kts | 33° |
| 2026-05-05 11:49 | 2.89995 | 104.19002 | 34624 ft | 500 kts | 33° |
| 2026-05-05 11:50 | 2.92945 | 104.20839 | 35120 ft | 498 kts | 33° |
| 2026-05-05 11:50 | 2.95872 | 104.22662 | 35642 ft | 496 kts | 33° |
| 2026-05-05 11:50 | 2.98803 | 104.24488 | 35807 ft | 495 kts | 33° |
| 2026-05-05 11:50 | 3.01737 | 104.26316 | 35830 ft | 498 kts | 33° |
| 2026-05-05 11:51 | 3.07615 | 104.29984 | 35829 ft | 498 kts | 33° |
| 2026-05-05 11:51 | 3.13468 | 104.33704 | 35828 ft | 498 kts | 33° |
| 2026-05-05 11:52 | 3.19350 | 104.37381 | 35828 ft | 498 kts | 33° |
| 2026-05-05 11:52 | 3.25243 | 104.41026 | 35829 ft | 498 kts | 33° |
| 2026-05-05 11:53 | 3.31139 | 104.44682 | 35832 ft | 498 kts | 33° |
| 2026-05-05 11:53 | 3.37034 | 104.48343 | 35833 ft | 499 kts | 33° |
| 2026-05-05 11:54 | 3.42894 | 104.51983 | 35832 ft | 499 kts | 33° |
| 2026-05-05 11:54 | 3.48803 | 104.55654 | 35835 ft | 499 kts | 33° |
| 2026-05-05 11:55 | 3.54711 | 104.59325 | 35836 ft | 500 kts | 33° |
| 2026-05-05 11:55 | 3.60621 | 104.62999 | 35838 ft | 500 kts | 33° |
| 2026-05-05 11:56 | 3.66528 | 104.66671 | 35838 ft | 500 kts | 33° |
| 2026-05-05 11:56 | 3.72385 | 104.70312 | 35834 ft | 500 kts | 33° |
| 2026-05-05 11:57 | 3.78299 | 104.73989 | 35833 ft | 500 kts | 33° |
| 2026-05-05 11:57 | 3.84208 | 104.77664 | 35836 ft | 500 kts | 33° |
| 2026-05-05 11:58 | 3.90078 | 104.81317 | 35835 ft | 500 kts | 33° |
| 2026-05-05 11:58 | 3.95997 | 104.85001 | 35835 ft | 500 kts | 33° |
| 2026-05-05 11:59 | 4.01899 | 104.88675 | 35835 ft | 500 kts | 33° |
| 2026-05-05 11:59 | 4.07809 | 104.92355 | 35836 ft | 500 kts | 33° |
| 2026-05-05 12:00 | 4.13702 | 104.96024 | 35838 ft | 499 kts | 33° |
| 2026-05-05 12:00 | 4.19568 | 104.99677 | 35838 ft | 499 kts | 33° |
| 2026-05-05 12:01 | 4.25482 | 105.03356 | 35837 ft | 499 kts | 33° |
| 2026-05-05 12:01 | 4.31397 | 105.07029 | 35838 ft | 499 kts | 33° |
| 2026-05-05 12:02 | 4.37305 | 105.10700 | 35836 ft | 499 kts | 33° |
| 2026-05-05 12:02 | 4.43217 | 105.14375 | 35835 ft | 499 kts | 33° |
| 2026-05-05 12:03 | 4.49107 | 105.18036 | 35834 ft | 500 kts | 33° |
| 2026-05-05 12:03 | 4.55020 | 105.21713 | 35835 ft | 500 kts | 33° |
| 2026-05-05 12:04 | 4.57987 | 105.23558 | 36010 ft | 503 kts | 33° |
| 2026-05-05 12:04 | 4.60906 | 105.25373 | 36543 ft | 500 kts | 33° |
| 2026-05-05 12:04 | 4.63849 | 105.27204 | 37148 ft | 496 kts | 33° |
| 2026-05-05 12:04 | 4.66768 | 105.29019 | 37721 ft | 493 kts | 33° |
| 2026-05-05 12:05 | 4.69677 | 105.30828 | 38203 ft | 491 kts | 33° |
| 2026-05-05 12:05 | 4.72578 | 105.32634 | 38682 ft | 489 kts | 33° |
| 2026-05-05 12:05 | 4.75465 | 105.34430 | 39125 ft | 486 kts | 33° |
| 2026-05-05 12:05 | 4.78337 | 105.36218 | 39535 ft | 484 kts | 33° |
| 2026-05-05 12:06 | 4.81196 | 105.37997 | 39786 ft | 486 kts | 33° |
| 2026-05-05 12:06 | 4.84048 | 105.39805 | 39834 ft | 481 kts | 34° |
| 2026-05-05 12:06 | 4.89627 | 105.43461 | 39838 ft | 479 kts | 34° |
| 2026-05-05 12:07 | 4.94273 | 105.46504 | 39838 ft | 480 kts | 34° |
| 2026-05-05 12:07 | 5.00784 | 105.50748 | 39837 ft | 480 kts | 34° |
| 2026-05-05 12:08 | 5.06390 | 105.54398 | 39837 ft | 480 kts | 34° |
| 2026-05-05 12:08 | 5.11996 | 105.58048 | 39837 ft | 480 kts | 34° |
| 2026-05-05 12:09 | 5.16652 | 105.61081 | 39841 ft | 480 kts | 34° |
| 2026-05-05 12:09 | 5.22253 | 105.64730 | 39840 ft | 480 kts | 34° |
| 2026-05-05 12:10 | 5.27851 | 105.68378 | 39842 ft | 480 kts | 34° |
| 2026-05-05 12:10 | 5.33448 | 105.72026 | 39840 ft | 479 kts | 34° |
| 2026-05-05 12:11 | 5.39047 | 105.75676 | 39839 ft | 479 kts | 34° |
| 2026-05-05 12:11 | 5.44640 | 105.79323 | 39839 ft | 479 kts | 34° |
| 2026-05-05 12:12 | 5.50233 | 105.82971 | 39836 ft | 479 kts | 34° |
| 2026-05-05 12:12 | 5.55786 | 105.86593 | 39841 ft | 479 kts | 34° |
| 2026-05-05 12:13 | 5.61374 | 105.90240 | 39839 ft | 479 kts | 34° |
| 2026-05-05 12:13 | 5.66955 | 105.93883 | 39839 ft | 478 kts | 34° |
| 2026-05-05 12:14 | 5.72547 | 105.97533 | 39840 ft | 478 kts | 34° |
| 2026-05-05 12:14 | 5.78089 | 106.01152 | 39845 ft | 478 kts | 33° |
| 2026-05-05 12:15 | 5.83663 | 106.04793 | 39843 ft | 478 kts | 34° |
| 2026-05-05 12:15 | 5.89230 | 106.08429 | 39861 ft | 476 kts | 34° |
| 2026-05-05 12:16 | 5.94784 | 106.12059 | 39853 ft | 475 kts | 34° |
| 2026-05-05 12:16 | 6.00326 | 106.15681 | 39845 ft | 475 kts | 34° |
| 2026-05-05 12:17 | 6.05858 | 106.19298 | 39840 ft | 474 kts | 34° |
| 2026-05-05 12:17 | 6.11385 | 106.22911 | 39835 ft | 473 kts | 34° |
| 2026-05-05 12:18 | 6.16876 | 106.26503 | 39834 ft | 473 kts | 34° |
| 2026-05-05 12:18 | 6.22392 | 106.30112 | 39837 ft | 473 kts | 34° |
| 2026-05-05 12:19 | 6.27903 | 106.33719 | 39841 ft | 472 kts | 34° |
| 2026-05-05 12:19 | 6.33413 | 106.37326 | 39841 ft | 473 kts | 33° |
| 2026-05-05 12:20 | 6.38930 | 106.40938 | 39842 ft | 473 kts | 33° |
| 2026-05-05 12:20 | 6.44410 | 106.44527 | 39844 ft | 473 kts | 33° |
| 2026-05-05 12:21 | 6.49934 | 106.48146 | 39847 ft | 473 kts | 33° |
| 2026-05-05 12:21 | 6.55407 | 106.51732 | 39848 ft | 474 kts | 33° |
| 2026-05-05 12:22 | 6.60931 | 106.55353 | 39851 ft | 474 kts | 33° |
| 2026-05-05 12:22 | 6.66454 | 106.58974 | 39851 ft | 474 kts | 33° |
| 2026-05-05 12:23 | 6.71972 | 106.62593 | 39851 ft | 474 kts | 33° |
| 2026-05-05 12:23 | 6.77494 | 106.66215 | 39848 ft | 474 kts | 33° |
| 2026-05-05 12:24 | 6.83015 | 106.69838 | 39852 ft | 474 kts | 33° |
| 2026-05-05 12:24 | 6.88545 | 106.73467 | 39832 ft | 475 kts | 34° |
| 2026-05-05 12:25 | 6.94052 | 106.77083 | 39835 ft | 476 kts | 34° |
| 2026-05-05 12:25 | 6.99618 | 106.80738 | 39844 ft | 477 kts | 34° |
| 2026-05-05 12:26 | 7.05185 | 106.84399 | 39853 ft | 479 kts | 34° |
| 2026-05-05 12:26 | 7.10770 | 106.88074 | 39859 ft | 479 kts | 34° |
| 2026-05-05 12:27 | 7.16326 | 106.91731 | 39866 ft | 480 kts | 34° |
| 2026-05-05 12:27 | 7.21922 | 106.95414 | 39868 ft | 480 kts | 34° |
| 2026-05-05 12:28 | 7.27511 | 106.99095 | 39866 ft | 480 kts | 34° |
| 2026-05-05 12:28 | 7.33111 | 107.02784 | 39863 ft | 480 kts | 34° |
| 2026-05-05 12:29 | 7.38704 | 107.06469 | 39870 ft | 479 kts | 34° |
| 2026-05-05 12:29 | 7.44282 | 107.10145 | 39864 ft | 479 kts | 34° |
| 2026-05-05 12:30 | 7.49851 | 107.13817 | 39860 ft | 478 kts | 34° |
| 2026-05-05 12:30 | 7.55418 | 107.17488 | 39857 ft | 477 kts | 34° |
| 2026-05-05 12:31 | 7.60935 | 107.21128 | 39856 ft | 477 kts | 34° |
| 2026-05-05 12:31 | 7.66488 | 107.24793 | 39852 ft | 477 kts | 34° |
| 2026-05-05 12:32 | 7.72033 | 107.28453 | 39851 ft | 476 kts | 34° |
| 2026-05-05 12:32 | 7.77587 | 107.32121 | 39852 ft | 476 kts | 34° |
| 2026-05-05 12:33 | 7.83138 | 107.35787 | 39854 ft | 477 kts | 34° |
| 2026-05-05 12:33 | 7.88687 | 107.39454 | 39856 ft | 477 kts | 34° |
| 2026-05-05 12:34 | 7.94249 | 107.43131 | 39855 ft | 477 kts | 34° |
| 2026-05-05 12:34 | 7.99777 | 107.46786 | 39870 ft | 478 kts | 33° |
| 2026-05-05 12:35 | 8.05334 | 107.50462 | 39870 ft | 478 kts | 33° |
| 2026-05-05 12:35 | 8.10899 | 107.54143 | 39872 ft | 477 kts | 33° |
| 2026-05-05 12:36 | 8.16455 | 107.57821 | 39871 ft | 477 kts | 33° |
| 2026-05-05 12:36 | 8.22010 | 107.61498 | 39870 ft | 477 kts | 33° |
| 2026-05-05 12:37 | 8.27526 | 107.65152 | 39867 ft | 477 kts | 33° |
| 2026-05-05 12:37 | 8.33086 | 107.68835 | 39866 ft | 477 kts | 33° |
| 2026-05-05 12:38 | 8.38632 | 107.72511 | 39866 ft | 476 kts | 33° |
| 2026-05-05 12:38 | 8.44172 | 107.76184 | 39863 ft | 477 kts | 33° |
| 2026-05-05 12:39 | 8.49683 | 107.79839 | 39863 ft | 477 kts | 33° |
| 2026-05-05 12:39 | 8.55227 | 107.83517 | 39862 ft | 477 kts | 33° |
| 2026-05-05 12:40 | 8.60771 | 107.87197 | 39861 ft | 477 kts | 33° |
| 2026-05-05 12:40 | 8.66312 | 107.90876 | 39863 ft | 477 kts | 33° |
| 2026-05-05 12:41 | 8.71863 | 107.94562 | 39860 ft | 477 kts | 33° |
| 2026-05-05 12:41 | 8.77421 | 107.98255 | 39861 ft | 478 kts | 33° |
| 2026-05-05 12:42 | 8.82981 | 108.01951 | 39869 ft | 478 kts | 33° |
| 2026-05-05 12:42 | 8.88537 | 108.05645 | 39870 ft | 478 kts | 34° |
| 2026-05-05 12:43 | 8.94063 | 108.09320 | 39882 ft | 478 kts | 34° |
| 2026-05-05 12:43 | 8.99618 | 108.13016 | 39887 ft | 478 kts | 34° |
| 2026-05-05 12:44 | 9.05178 | 108.16718 | 39882 ft | 478 kts | 34° |
| 2026-05-05 12:44 | 9.10746 | 108.20425 | 39889 ft | 478 kts | 34° |
| 2026-05-05 12:45 | 9.16311 | 108.24132 | 39882 ft | 479 kts | 34° |
| 2026-05-05 12:45 | 9.21874 | 108.27839 | 39882 ft | 479 kts | 34° |
| 2026-05-05 12:46 | 9.27405 | 108.31527 | 39879 ft | 479 kts | 34° |
| 2026-05-05 12:46 | 9.32967 | 108.35236 | 39876 ft | 479 kts | 34° |
| 2026-05-05 12:47 | 9.38532 | 108.38949 | 39850 ft | 480 kts | 34° |
| 2026-05-05 12:47 | 9.44117 | 108.42676 | 39860 ft | 481 kts | 34° |
| 2026-05-05 12:48 | 9.49706 | 108.46406 | 39873 ft | 482 kts | 34° |
| 2026-05-05 12:48 | 9.55311 | 108.50147 | 39880 ft | 483 kts | 34° |
| 2026-05-05 12:49 | 9.60917 | 108.53890 | 39888 ft | 483 kts | 34° |
| 2026-05-05 12:49 | 9.66531 | 108.57640 | 39892 ft | 483 kts | 34° |
| 2026-05-05 12:50 | 9.72138 | 108.61387 | 39903 ft | 482 kts | 33° |
| 2026-05-05 12:50 | 9.77734 | 108.65128 | 39899 ft | 481 kts | 33° |
| 2026-05-05 12:51 | 9.83294 | 108.68846 | 39903 ft | 480 kts | 33° |
| 2026-05-05 12:51 | 9.88871 | 108.72577 | 39897 ft | 480 kts | 33° |
| 2026-05-05 12:52 | 9.94442 | 108.76306 | 39887 ft | 479 kts | 33° |
| 2026-05-05 12:52 | 10.00014 | 108.80037 | 39875 ft | 479 kts | 33° |
| 2026-05-05 12:53 | 10.05595 | 108.83773 | 39857 ft | 481 kts | 33° |
| 2026-05-05 12:53 | 10.11153 | 108.87492 | 39864 ft | 482 kts | 33° |
| 2026-05-05 12:54 | 10.19574 | 108.93131 | 39892 ft | 484 kts | 33° |
| 2026-05-05 12:55 | 10.25206 | 108.96905 | 39900 ft | 485 kts | 33° |
| 2026-05-05 12:55 | 10.30849 | 109.00687 | 39907 ft | 486 kts | 33° |
| 2026-05-05 12:56 | 10.36499 | 109.04477 | 39912 ft | 487 kts | 32° |
| 2026-05-05 12:56 | 10.42143 | 109.08264 | 39910 ft | 486 kts | 32° |
| 2026-05-05 12:57 | 10.47786 | 109.12052 | 39908 ft | 486 kts | 32° |
| 2026-05-05 12:57 | 10.53387 | 109.15813 | 39888 ft | 486 kts | 32° |
| 2026-05-05 12:58 | 10.59034 | 109.19607 | 39892 ft | 486 kts | 32° |
| 2026-05-05 12:58 | 10.64675 | 109.23398 | 39892 ft | 486 kts | 32° |
| 2026-05-05 12:59 | 10.70319 | 109.27194 | 39900 ft | 486 kts | 32° |
| 2026-05-05 12:59 | 10.75008 | 109.30348 | 39897 ft | 486 kts | 32° |
| 2026-05-05 13:00 | 10.83478 | 109.36049 | 39898 ft | 487 kts | 32° |
| 2026-05-05 13:01 | 10.94779 | 109.43662 | 39898 ft | 487 kts | 32° |
| 2026-05-05 13:01 | 11.00430 | 109.47471 | 39911 ft | 487 kts | 32° |
| 2026-05-05 13:02 | 11.06036 | 109.51252 | 39914 ft | 486 kts | 32° |
| 2026-05-05 13:02 | 11.11668 | 109.55052 | 39905 ft | 486 kts | 32° |
| 2026-05-05 13:03 | 11.17350 | 109.58803 | 39904 ft | 485 kts | 31° |
| 2026-05-05 13:03 | 11.23017 | 109.62522 | 39897 ft | 485 kts | 31° |
| 2026-05-05 13:04 | 11.28685 | 109.66255 | 39897 ft | 485 kts | 32° |
| 2026-05-05 13:04 | 11.34347 | 109.69991 | 39888 ft | 485 kts | 31° |
| 2026-05-05 13:05 | 11.40004 | 109.73726 | 39894 ft | 485 kts | 32° |
| 2026-05-05 13:05 | 11.45624 | 109.77437 | 39893 ft | 485 kts | 32° |
| 2026-05-05 13:06 | 11.51285 | 109.81179 | 39895 ft | 485 kts | 31° |
| 2026-05-05 13:06 | 11.56958 | 109.84929 | 39898 ft | 485 kts | 31° |
| 2026-05-05 13:07 | 11.62630 | 109.88680 | 39907 ft | 486 kts | 31° |
| 2026-05-05 13:07 | 11.68312 | 109.92441 | 39907 ft | 486 kts | 31° |
| 2026-05-05 13:08 | 11.73959 | 109.96179 | 39895 ft | 487 kts | 31° |
| 2026-05-05 13:08 | 11.79651 | 109.99949 | 39902 ft | 488 kts | 31° |
| 2026-05-05 13:09 | 11.85361 | 110.03733 | 39911 ft | 489 kts | 31° |
| 2026-05-05 13:09 | 11.91083 | 110.07527 | 39918 ft | 490 kts | 32° |
| 2026-05-05 13:10 | 11.96767 | 110.11298 | 39922 ft | 490 kts | 32° |
| 2026-05-05 13:10 | 12.02490 | 110.15097 | 39923 ft | 490 kts | 32° |
| 2026-05-05 13:11 | 12.08212 | 110.18897 | 39919 ft | 490 kts | 31° |
| 2026-05-05 13:11 | 12.13920 | 110.22689 | 39913 ft | 490 kts | 31° |
| 2026-05-05 13:12 | 12.19639 | 110.26491 | 39914 ft | 490 kts | 31° |
| 2026-05-05 13:12 | 12.25326 | 110.30273 | 39911 ft | 489 kts | 31° |
| 2026-05-05 13:13 | 12.31035 | 110.34073 | 39912 ft | 489 kts | 32° |
| 2026-05-05 13:13 | 12.36739 | 110.37870 | 39895 ft | 490 kts | 32° |
| 2026-05-05 13:14 | 12.42403 | 110.41775 | 39900 ft | 490 kts | 33° |
| 2026-05-05 13:14 | 12.48021 | 110.45726 | 39904 ft | 491 kts | 33° |
| 2026-05-05 13:15 | 12.53671 | 110.49679 | 39918 ft | 492 kts | 33° |
| 2026-05-05 13:15 | 12.59325 | 110.53626 | 39920 ft | 492 kts | 33° |
| 2026-05-05 13:16 | 12.64957 | 110.57560 | 39917 ft | 492 kts | 33° |
| 2026-05-05 13:16 | 12.70623 | 110.61519 | 39907 ft | 493 kts | 33° |
| 2026-05-05 13:17 | 12.76289 | 110.65481 | 39917 ft | 493 kts | 33° |
| 2026-05-05 13:17 | 12.81958 | 110.69447 | 39918 ft | 493 kts | 33° |
| 2026-05-05 13:18 | 12.87635 | 110.73420 | 39914 ft | 493 kts | 33° |
| 2026-05-05 13:18 | 12.93272 | 110.77367 | 39911 ft | 494 kts | 33° |
| 2026-05-05 13:19 | 12.98944 | 110.81341 | 39918 ft | 493 kts | 32° |
| 2026-05-05 13:19 | 13.04600 | 110.85306 | 39933 ft | 492 kts | 32° |
| 2026-05-05 13:20 | 13.10246 | 110.89266 | 39926 ft | 491 kts | 32° |
| 2026-05-05 13:20 | 13.15889 | 110.93226 | 39917 ft | 490 kts | 32° |
| 2026-05-05 13:21 | 13.21507 | 110.97170 | 39914 ft | 489 kts | 32° |
| 2026-05-05 13:21 | 13.27123 | 111.01116 | 39910 ft | 489 kts | 32° |
| 2026-05-05 13:22 | 13.32694 | 111.05032 | 39907 ft | 489 kts | 32° |
| 2026-05-05 13:22 | 13.38311 | 111.08984 | 39908 ft | 489 kts | 32° |
| 2026-05-05 13:23 | 13.43921 | 111.12931 | 39905 ft | 489 kts | 32° |
| 2026-05-05 13:23 | 13.49539 | 111.16888 | 39908 ft | 489 kts | 32° |
| 2026-05-05 13:24 | 13.55158 | 111.20846 | 39911 ft | 490 kts | 32° |
| 2026-05-05 13:24 | 13.60779 | 111.24809 | 39916 ft | 490 kts | 32° |
| 2026-05-05 13:25 | 13.66404 | 111.28777 | 39909 ft | 491 kts | 32° |
| 2026-05-05 13:25 | 13.72035 | 111.32751 | 39917 ft | 491 kts | 32° |
| 2026-05-05 13:26 | 13.77671 | 111.36732 | 39919 ft | 491 kts | 32° |
| 2026-05-05 13:26 | 13.83277 | 111.40694 | 39921 ft | 492 kts | 32° |
| 2026-05-05 13:27 | 13.88910 | 111.44677 | 39922 ft | 492 kts | 32° |
| 2026-05-05 13:27 | 13.94552 | 111.48669 | 39934 ft | 492 kts | 32° |
| 2026-05-05 13:28 | 14.00194 | 111.52660 | 39914 ft | 493 kts | 32° |
| 2026-05-05 13:28 | 14.05858 | 111.56642 | 39918 ft | 493 kts | 32° |
| 2026-05-05 13:29 | 14.11530 | 111.60631 | 39916 ft | 493 kts | 32° |
| 2026-05-05 13:29 | 14.17199 | 111.64623 | 39919 ft | 493 kts | 32° |
| 2026-05-05 13:30 | 14.22868 | 111.68619 | 39922 ft | 494 kts | 32° |
| 2026-05-05 13:30 | 14.28501 | 111.72591 | 39923 ft | 494 kts | 32° |
| 2026-05-05 13:31 | 14.34169 | 111.76590 | 39927 ft | 494 kts | 32° |
| 2026-05-05 13:31 | 14.39839 | 111.80594 | 39919 ft | 494 kts | 32° |
| 2026-05-05 13:32 | 14.45504 | 111.84597 | 39924 ft | 493 kts | 32° |
| 2026-05-05 13:32 | 14.51171 | 111.88604 | 39922 ft | 493 kts | 32° |
| 2026-05-05 13:33 | 14.56836 | 111.92611 | 39930 ft | 493 kts | 31° |
| 2026-05-05 13:33 | 14.62498 | 111.96614 | 39917 ft | 493 kts | 31° |
| 2026-05-05 13:34 | 14.68130 | 112.00598 | 39916 ft | 493 kts | 31° |
| 2026-05-05 13:34 | 14.73798 | 112.04600 | 39919 ft | 494 kts | 31° |
| 2026-05-05 13:35 | 14.79480 | 112.08586 | 39924 ft | 494 kts | 31° |
| 2026-05-05 13:35 | 14.85152 | 112.12567 | 39925 ft | 494 kts | 31° |
| 2026-05-05 13:36 | 14.90833 | 112.16561 | 39934 ft | 494 kts | 31° |
| 2026-05-05 13:36 | 14.96508 | 112.20555 | 39935 ft | 493 kts | 31° |
| 2026-05-05 13:37 | 15.02177 | 112.24547 | 39930 ft | 493 kts | 31° |
| 2026-05-05 13:37 | 15.07853 | 112.28547 | 39926 ft | 493 kts | 31° |
| 2026-05-05 13:38 | 15.13516 | 112.32540 | 39926 ft | 492 kts | 31° |
| 2026-05-05 13:38 | 15.19177 | 112.36534 | 39933 ft | 492 kts | 32° |
| 2026-05-05 13:39 | 15.24803 | 112.40506 | 39926 ft | 492 kts | 32° |
| 2026-05-05 13:39 | 15.30463 | 112.44504 | 39924 ft | 492 kts | 32° |
| 2026-05-05 13:40 | 15.36089 | 112.48482 | 39921 ft | 493 kts | 32° |
| 2026-05-05 13:40 | 15.41757 | 112.52492 | 39923 ft | 493 kts | 32° |
| 2026-05-05 13:41 | 15.47434 | 112.56511 | 39926 ft | 494 kts | 32° |
| 2026-05-05 13:41 | 15.53081 | 112.60512 | 39918 ft | 495 kts | 32° |
| 2026-05-05 13:42 | 15.58774 | 112.64548 | 39934 ft | 495 kts | 32° |
| 2026-05-05 13:42 | 15.64474 | 112.68591 | 39934 ft | 496 kts | 32° |
| 2026-05-05 13:43 | 15.70175 | 112.72638 | 39936 ft | 497 kts | 32° |
| 2026-05-05 13:43 | 15.75875 | 112.76687 | 39941 ft | 497 kts | 32° |
| 2026-05-05 13:44 | 15.81553 | 112.80724 | 39923 ft | 497 kts | 31° |
| 2026-05-05 13:44 | 15.87267 | 112.84788 | 39923 ft | 498 kts | 31° |
| 2026-05-05 13:45 | 15.92982 | 112.88857 | 39937 ft | 498 kts | 31° |
| 2026-05-05 13:45 | 15.98699 | 112.92929 | 39937 ft | 498 kts | 31° |
| 2026-05-05 13:46 | 16.04415 | 112.97004 | 39937 ft | 498 kts | 31° |
| 2026-05-05 13:46 | 16.10128 | 113.01079 | 39950 ft | 497 kts | 32° |
| 2026-05-05 13:47 | 16.15822 | 113.05144 | 39966 ft | 495 kts | 32° |
| 2026-05-05 13:47 | 16.21461 | 113.09173 | 39956 ft | 494 kts | 32° |
| 2026-05-05 13:48 | 16.27127 | 113.13224 | 39946 ft | 494 kts | 32° |
| 2026-05-05 13:48 | 16.32783 | 113.17270 | 39925 ft | 493 kts | 32° |
| 2026-05-05 13:49 | 16.38432 | 113.21313 | 39931 ft | 492 kts | 32° |
| 2026-05-05 13:49 | 16.43125 | 113.24675 | 39938 ft | 491 kts | 32° |
| 2026-05-05 13:50 | 16.48747 | 113.28705 | 39932 ft | 490 kts | 32° |
| 2026-05-05 13:50 | 16.54365 | 113.32736 | 39933 ft | 489 kts | 32° |
| 2026-05-05 13:51 | 16.59891 | 113.36703 | 39928 ft | 489 kts | 32° |
| 2026-05-05 13:51 | 16.65489 | 113.40724 | 39924 ft | 488 kts | 32° |
| 2026-05-05 13:52 | 16.71084 | 113.44746 | 39922 ft | 488 kts | 32° |
| 2026-05-05 13:52 | 16.76672 | 113.48767 | 39923 ft | 488 kts | 32° |
| 2026-05-05 13:53 | 16.82256 | 113.52787 | 39922 ft | 487 kts | 32° |
| 2026-05-05 13:53 | 16.87812 | 113.56790 | 39925 ft | 488 kts | 32° |
| 2026-05-05 13:54 | 16.93404 | 113.60821 | 39927 ft | 488 kts | 32° |
| 2026-05-05 13:54 | 16.98995 | 113.64855 | 39938 ft | 489 kts | 32° |
| 2026-05-05 13:55 | 17.04597 | 113.68897 | 39939 ft | 489 kts | 32° |
| 2026-05-05 13:55 | 17.10230 | 113.72909 | 39943 ft | 490 kts | 31° |
| 2026-05-05 13:56 | 17.15871 | 113.76920 | 39946 ft | 490 kts | 31° |
| 2026-05-05 13:56 | 17.21472 | 113.80911 | 39948 ft | 491 kts | 31° |
| 2026-05-05 13:57 | 17.27117 | 113.84940 | 39951 ft | 491 kts | 31° |
| 2026-05-05 13:57 | 17.32746 | 113.88959 | 39951 ft | 491 kts | 31° |
| 2026-05-05 13:58 | 17.38387 | 113.92991 | 39947 ft | 490 kts | 31° |
| 2026-05-05 13:58 | 17.44023 | 113.97023 | 39944 ft | 490 kts | 32° |
| 2026-05-05 13:59 | 17.52469 | 114.03069 | 39945 ft | 490 kts | 32° |
| 2026-05-05 14:00 | 17.60870 | 114.09090 | 39943 ft | 490 kts | 32° |
| 2026-05-05 14:00 | 17.66500 | 114.13130 | 39945 ft | 490 kts | 32° |
| 2026-05-05 14:01 | 17.72127 | 114.17169 | 39942 ft | 490 kts | 32° |
| 2026-05-05 14:01 | 17.77756 | 114.21214 | 39943 ft | 490 kts | 32° |
| 2026-05-05 14:02 | 17.83383 | 114.25260 | 39947 ft | 490 kts | 32° |
| 2026-05-05 14:02 | 17.89015 | 114.29314 | 39947 ft | 491 kts | 31° |
| 2026-05-05 14:03 | 17.94607 | 114.33341 | 39947 ft | 491 kts | 31° |
| 2026-05-05 14:03 | 18.00239 | 114.37400 | 39949 ft | 491 kts | 31° |
| 2026-05-05 14:04 | 18.05885 | 114.41473 | 39952 ft | 491 kts | 32° |
| 2026-05-05 14:04 | 18.11519 | 114.45540 | 39954 ft | 491 kts | 32° |
| 2026-05-05 14:05 | 18.17159 | 114.49615 | 39951 ft | 492 kts | 31° |
| 2026-05-05 14:05 | 18.23079 | 114.53152 | 39951 ft | 487 kts | 21° |
| 2026-05-05 14:06 | 18.29437 | 114.55523 | 39951 ft | 483 kts | 11° |
| 2026-05-05 14:06 | 18.35997 | 114.56995 | 39953 ft | 482 kts | 9° |
| 2026-05-05 14:07 | 18.42557 | 114.58441 | 39954 ft | 482 kts | 9° |
| 2026-05-05 14:07 | 18.49090 | 114.59876 | 39952 ft | 483 kts | 8° |
| 2026-05-05 14:08 | 18.55665 | 114.61315 | 39959 ft | 483 kts | 8° |
| 2026-05-05 14:08 | 18.62243 | 114.62755 | 39963 ft | 483 kts | 8° |
| 2026-05-05 14:09 | 18.68814 | 114.64195 | 39963 ft | 483 kts | 8° |
| 2026-05-05 14:09 | 18.75398 | 114.65638 | 39978 ft | 483 kts | 8° |
| 2026-05-05 14:10 | 18.81988 | 114.67084 | 39961 ft | 483 kts | 8° |
| 2026-05-05 14:10 | 18.88558 | 114.68527 | 39965 ft | 483 kts | 8° |
| 2026-05-05 14:11 | 18.95117 | 114.70038 | 39961 ft | 484 kts | 12° |
| 2026-05-05 14:11 | 19.01501 | 114.72439 | 39964 ft | 489 kts | 20° |
| 2026-05-05 14:12 | 19.07477 | 114.75813 | 39964 ft | 494 kts | 27° |
| 2026-05-05 14:12 | 19.13364 | 114.79562 | 39968 ft | 494 kts | 27° |
| 2026-05-05 14:13 | 19.19262 | 114.83302 | 39966 ft | 494 kts | 27° |
| 2026-05-05 14:13 | 19.25155 | 114.87056 | 39966 ft | 494 kts | 27° |
| 2026-05-05 14:14 | 19.31049 | 114.90817 | 39965 ft | 495 kts | 27° |
| 2026-05-05 14:14 | 19.36942 | 114.94582 | 39965 ft | 495 kts | 27° |
| 2026-05-05 14:15 | 19.42854 | 114.98362 | 39963 ft | 495 kts | 27° |
| 2026-05-05 14:15 | 19.48756 | 115.02139 | 39957 ft | 496 kts | 27° |
| 2026-05-05 14:16 | 19.54666 | 115.05924 | 39971 ft | 496 kts | 27° |
| 2026-05-05 14:16 | 19.60537 | 115.09687 | 39969 ft | 496 kts | 27° |
| 2026-05-05 14:17 | 19.66448 | 115.13479 | 39962 ft | 496 kts | 27° |
| 2026-05-05 14:17 | 19.72361 | 115.17276 | 39964 ft | 496 kts | 27° |
| 2026-05-05 14:18 | 19.78236 | 115.21052 | 39971 ft | 497 kts | 27° |
| 2026-05-05 14:18 | 19.84191 | 115.24882 | 39972 ft | 497 kts | 27° |
| 2026-05-05 14:19 | 19.90061 | 115.28661 | 39984 ft | 497 kts | 27° |
| 2026-05-05 14:19 | 19.95974 | 115.32471 | 39990 ft | 496 kts | 27° |
| 2026-05-05 14:20 | 20.01886 | 115.36283 | 39971 ft | 497 kts | 27° |
| 2026-05-05 14:20 | 20.07800 | 115.40101 | 39971 ft | 497 kts | 27° |
| 2026-05-05 14:21 | 20.13714 | 115.43922 | 39974 ft | 497 kts | 27° |
| 2026-05-05 14:21 | 20.19635 | 115.47751 | 39975 ft | 497 kts | 27° |
| 2026-05-05 14:22 | 20.25552 | 115.51580 | 39980 ft | 497 kts | 27° |
| 2026-05-05 14:22 | 20.31437 | 115.55393 | 39980 ft | 498 kts | 27° |
| 2026-05-05 14:23 | 20.37351 | 115.59228 | 39985 ft | 498 kts | 27° |
| 2026-05-05 14:23 | 20.43274 | 115.63071 | 39984 ft | 498 kts | 27° |
| 2026-05-05 14:24 | 20.49190 | 115.66914 | 39981 ft | 498 kts | 27° |
| 2026-05-05 14:24 | 20.55108 | 115.70761 | 39982 ft | 498 kts | 27° |
| 2026-05-05 14:25 | 20.61039 | 115.74621 | 39986 ft | 498 kts | 27° |
| 2026-05-05 14:25 | 20.66961 | 115.78479 | 39988 ft | 499 kts | 27° |
| 2026-05-05 14:26 | 20.72851 | 115.82319 | 39998 ft | 499 kts | 27° |
| 2026-05-05 14:26 | 20.78773 | 115.86183 | 39993 ft | 499 kts | 27° |
| 2026-05-05 14:27 | 20.84658 | 115.90027 | 39991 ft | 498 kts | 27° |
| 2026-05-05 14:27 | 20.90576 | 115.93896 | 39992 ft | 498 kts | 27° |
| 2026-05-05 14:28 | 20.96504 | 115.97774 | 39984 ft | 499 kts | 27° |
| 2026-05-05 14:28 | 21.02429 | 116.01656 | 39984 ft | 499 kts | 26° |
| 2026-05-05 14:29 | 21.08363 | 116.05546 | 39987 ft | 500 kts | 26° |
| 2026-05-05 14:29 | 21.14304 | 116.09445 | 39994 ft | 500 kts | 26° |
| 2026-05-05 14:30 | 21.20208 | 116.13322 | 40005 ft | 501 kts | 26° |
| 2026-05-05 14:30 | 21.26151 | 116.17230 | 40019 ft | 501 kts | 26° |
| 2026-05-05 14:31 | 21.32100 | 116.21145 | 40008 ft | 502 kts | 26° |
| 2026-05-05 14:31 | 21.38051 | 116.25065 | 40008 ft | 502 kts | 26° |
| 2026-05-05 14:32 | 21.44002 | 116.28986 | 39997 ft | 501 kts | 25° |
| 2026-05-05 14:32 | 21.50351 | 116.31747 | 39998 ft | 487 kts | 7° |
| 2026-05-05 14:33 | 21.56945 | 116.32368 | 40021 ft | 474 kts | 351° |
| 2026-05-05 14:33 | 21.63318 | 116.31039 | 40019 ft | 463 kts | 339° |
| 2026-05-05 14:34 | 21.69528 | 116.29118 | 40018 ft | 464 kts | 339° |
| 2026-05-05 14:34 | 21.75726 | 116.27217 | 40016 ft | 463 kts | 339° |
| 2026-05-05 14:35 | 21.81924 | 116.25305 | 40023 ft | 463 kts | 339° |
| 2026-05-05 14:35 | 21.88111 | 116.23393 | 40032 ft | 463 kts | 339° |
| 2026-05-05 14:36 | 21.94260 | 116.21490 | 40032 ft | 462 kts | 339° |
| 2026-05-05 14:36 | 22.00489 | 116.19756 | 40023 ft | 465 kts | 344° |
| 2026-05-05 14:37 | 22.05850 | 116.19018 | 40028 ft | 470 kts | 351° |
| 2026-05-05 14:37 | 22.12407 | 116.18788 | 40023 ft | 471 kts | 352° |
| 2026-05-05 14:38 | 22.18962 | 116.18559 | 40024 ft | 471 kts | 352° |
| 2026-05-05 14:38 | 22.25522 | 116.18339 | 40023 ft | 471 kts | 352° |
| 2026-05-05 14:39 | 22.32039 | 116.18126 | 40022 ft | 471 kts | 352° |
| 2026-05-05 14:39 | 22.38591 | 116.17914 | 40029 ft | 471 kts | 352° |
| 2026-05-05 14:40 | 22.45145 | 116.17701 | 40042 ft | 471 kts | 352° |
| 2026-05-05 14:40 | 22.51704 | 116.17487 | 40036 ft | 471 kts | 352° |
| 2026-05-05 14:41 | 22.58259 | 116.17273 | 40033 ft | 471 kts | 352° |
| 2026-05-05 14:41 | 22.64805 | 116.17084 | 40039 ft | 472 kts | 355° |
| 2026-05-05 14:42 | 22.71379 | 116.18271 | 40037 ft | 489 kts | 12° |
| 2026-05-05 14:42 | 22.77534 | 116.21565 | 40036 ft | 507 kts | 28° |
| 2026-05-05 14:43 | 22.83158 | 116.26229 | 40041 ft | 509 kts | 30° |
| 2026-05-05 14:43 | 22.88802 | 116.30898 | 40028 ft | 510 kts | 30° |
| 2026-05-05 14:44 | 22.94437 | 116.35574 | 40031 ft | 510 kts | 30° |
| 2026-05-05 14:44 | 23.00080 | 116.40244 | 40037 ft | 510 kts | 30° |
| 2026-05-05 14:45 | 23.05735 | 116.44907 | 40038 ft | 510 kts | 30° |
| 2026-05-05 14:45 | 23.11387 | 116.49579 | 40044 ft | 510 kts | 30° |
| 2026-05-05 14:46 | 23.17036 | 116.54257 | 40046 ft | 510 kts | 30° |
| 2026-05-05 14:46 | 23.22686 | 116.58939 | 40041 ft | 511 kts | 30° |
| 2026-05-05 14:47 | 23.28304 | 116.63602 | 40045 ft | 511 kts | 30° |
| 2026-05-05 14:47 | 23.33969 | 116.68307 | 40049 ft | 511 kts | 30° |
| 2026-05-05 14:48 | 23.39622 | 116.73009 | 40048 ft | 511 kts | 30° |
| 2026-05-05 14:48 | 23.45126 | 116.77966 | 40046 ft | 518 kts | 37° |
| 2026-05-05 14:49 | 23.50158 | 116.83656 | 40052 ft | 521 kts | 39° |
| 2026-05-05 14:49 | 23.52684 | 116.86512 | 40155 ft | 525 kts | 39° |
| 2026-05-05 14:49 | 23.55217 | 116.89376 | 40150 ft | 524 kts | 39° |
| 2026-05-05 14:50 | 23.60229 | 116.95063 | 40145 ft | 522 kts | 39° |
| 2026-05-05 14:50 | 23.65255 | 117.00779 | 40148 ft | 523 kts | 39° |
| 2026-05-05 14:51 | 23.70286 | 117.06507 | 40148 ft | 523 kts | 39° |
| 2026-05-05 14:51 | 23.75322 | 117.12249 | 40149 ft | 523 kts | 39° |
| 2026-05-05 14:52 | 23.80614 | 117.17602 | 40144 ft | 516 kts | 34° |
| 2026-05-05 14:52 | 23.85980 | 117.22835 | 40115 ft | 517 kts | 34° |
| 2026-05-05 14:53 | 23.91289 | 117.28027 | 40112 ft | 515 kts | 34° |
| 2026-05-05 14:53 | 23.96635 | 117.33256 | 40131 ft | 516 kts | 34° |
| 2026-05-05 14:54 | 24.01996 | 117.38507 | 40120 ft | 517 kts | 34° |
| 2026-05-05 14:54 | 24.07362 | 117.43768 | 40106 ft | 518 kts | 34° |
| 2026-05-05 14:55 | 24.12693 | 117.49004 | 40121 ft | 520 kts | 36° |
| 2026-05-05 14:55 | 24.17732 | 117.54810 | 40129 ft | 528 kts | 41° |
| 2026-05-05 14:56 | 24.22658 | 117.60715 | 40148 ft | 531 kts | 41° |
| 2026-05-05 14:56 | 24.27653 | 117.66701 | 40146 ft | 533 kts | 41° |
| 2026-05-05 14:57 | 24.32657 | 117.72713 | 40162 ft | 534 kts | 41° |
| 2026-05-05 14:57 | 24.37636 | 117.78706 | 40164 ft | 534 kts | 41° |
| 2026-05-05 14:58 | 24.42639 | 117.84737 | 40201 ft | 534 kts | 41° |
| 2026-05-05 14:58 | 24.47639 | 117.90771 | 40167 ft | 534 kts | 41° |
| 2026-05-05 14:59 | 24.52629 | 117.96800 | 40162 ft | 533 kts | 41° |
| 2026-05-05 14:59 | 24.57616 | 118.02824 | 40158 ft | 532 kts | 40° |
| 2026-05-05 15:00 | 24.61875 | 118.07676 | 40145 ft | 529 kts | 39° |
| 2026-05-05 15:00 | 24.67908 | 118.14446 | 40152 ft | 531 kts | 39° |
| 2026-05-05 15:01 | 24.73047 | 118.20279 | 40144 ft | 531 kts | 39° |
| 2026-05-05 15:01 | 24.78175 | 118.26127 | 40152 ft | 531 kts | 39° |
| 2026-05-05 15:02 | 24.83294 | 118.31972 | 40156 ft | 531 kts | 39° |
| 2026-05-05 15:02 | 24.88377 | 118.37781 | 40168 ft | 531 kts | 40° |
| 2026-05-05 15:03 | 24.93510 | 118.43656 | 40148 ft | 532 kts | 40° |
| 2026-05-05 15:03 | 24.98644 | 118.49541 | 40159 ft | 533 kts | 40° |
| 2026-05-05 15:04 | 25.03787 | 118.55442 | 40172 ft | 534 kts | 40° |
| 2026-05-05 15:04 | 25.08937 | 118.61360 | 40178 ft | 535 kts | 40° |
| 2026-05-05 15:05 | 25.16549 | 118.70464 | 40184 ft | 539 kts | 42° |
| 2026-05-05 15:06 | 25.21561 | 118.76555 | 40189 ft | 539 kts | 42° |
| 2026-05-05 15:06 | 25.26620 | 118.82676 | 40195 ft | 539 kts | 42° |
| 2026-05-05 15:07 | 25.31676 | 118.88796 | 40189 ft | 539 kts | 42° |
| 2026-05-05 15:07 | 25.36746 | 118.94890 | 40193 ft | 538 kts | 41° |
| 2026-05-05 15:08 | 25.41906 | 119.00876 | 40174 ft | 538 kts | 41° |
| 2026-05-05 15:08 | 25.46764 | 119.06526 | 40178 ft | 538 kts | 41° |
| 2026-05-05 15:09 | 25.51142 | 119.11643 | 40179 ft | 539 kts | 41° |
| 2026-05-05 15:09 | 25.56303 | 119.17687 | 40204 ft | 539 kts | 41° |
| 2026-05-05 15:10 | 25.61447 | 119.23721 | 40203 ft | 539 kts | 41° |
| 2026-05-05 15:10 | 25.66565 | 119.29732 | 40170 ft | 539 kts | 41° |
| 2026-05-05 15:11 | 25.71900 | 119.35469 | 40173 ft | 532 kts | 31° |
| 2026-05-05 15:11 | 25.78172 | 119.39639 | 40197 ft | 519 kts | 17° |
| 2026-05-05 15:12 | 25.84932 | 119.42177 | 40188 ft | 510 kts | 9° |
| 2026-05-05 15:12 | 25.91691 | 119.44482 | 40186 ft | 511 kts | 10° |
| 2026-05-05 15:13 | 25.98483 | 119.46803 | 40190 ft | 511 kts | 10° |
| 2026-05-05 15:13 | 26.05288 | 119.49122 | 40220 ft | 511 kts | 10° |
| 2026-05-05 15:14 | 26.12085 | 119.51439 | 40220 ft | 511 kts | 10° |
| 2026-05-05 15:14 | 26.18858 | 119.53835 | 40204 ft | 513 kts | 14° |
| 2026-05-05 15:15 | 26.25386 | 119.57251 | 40193 ft | 523 kts | 24° |
| 2026-05-05 15:15 | 26.31589 | 119.61562 | 40181 ft | 525 kts | 26° |
| 2026-05-05 15:16 | 26.37791 | 119.65877 | 40190 ft | 525 kts | 26° |
| 2026-05-05 15:16 | 26.43944 | 119.70178 | 40191 ft | 525 kts | 26° |
| 2026-05-05 15:17 | 26.50145 | 119.74528 | 40197 ft | 526 kts | 26° |
| 2026-05-05 15:17 | 26.56341 | 119.78876 | 40201 ft | 525 kts | 26° |
| 2026-05-05 15:18 | 26.62530 | 119.83224 | 40178 ft | 525 kts | 26° |
| 2026-05-05 15:18 | 26.68725 | 119.87583 | 40177 ft | 526 kts | 26° |
| 2026-05-05 15:19 | 26.74880 | 119.91921 | 40184 ft | 526 kts | 26° |
| 2026-05-05 15:19 | 26.81076 | 119.96292 | 40191 ft | 526 kts | 26° |
| 2026-05-05 15:20 | 26.87270 | 120.00667 | 40192 ft | 526 kts | 26° |
| 2026-05-05 15:20 | 26.93454 | 120.05047 | 40217 ft | 526 kts | 27° |
| 2026-05-05 15:21 | 26.99656 | 120.09447 | 40200 ft | 527 kts | 27° |
| 2026-05-05 15:21 | 27.05816 | 120.13822 | 40185 ft | 528 kts | 27° |
| 2026-05-05 15:22 | 27.12040 | 120.18248 | 40192 ft | 529 kts | 27° |
| 2026-05-05 15:22 | 27.18271 | 120.22659 | 40213 ft | 530 kts | 27° |
| 2026-05-05 15:23 | 27.24485 | 120.27037 | 40210 ft | 530 kts | 27° |
| 2026-05-05 15:23 | 27.30738 | 120.31456 | 40210 ft | 530 kts | 27° |
| 2026-05-05 15:24 | 27.36981 | 120.35874 | 40208 ft | 530 kts | 27° |
| 2026-05-05 15:24 | 27.42208 | 120.39586 | 40218 ft | 530 kts | 27° |
| 2026-05-05 15:25 | 27.49455 | 120.44744 | 40188 ft | 530 kts | 27° |
| 2026-05-05 15:25 | 27.55698 | 120.49192 | 40193 ft | 530 kts | 27° |
| 2026-05-05 15:26 | 27.60884 | 120.52892 | 40193 ft | 530 kts | 27° |
| 2026-05-05 15:26 | 27.67124 | 120.57350 | 40188 ft | 531 kts | 27° |
| 2026-05-05 15:27 | 27.73579 | 120.61231 | 40183 ft | 521 kts | 15° |
| 2026-05-05 15:27 | 27.80489 | 120.63379 | 40184 ft | 510 kts | 2° |
| 2026-05-05 15:28 | 27.87507 | 120.64128 | 40194 ft | 506 kts | 358° |
| 2026-05-05 15:28 | 27.94517 | 120.64798 | 40192 ft | 506 kts | 358° |
| 2026-05-05 15:29 | 28.01530 | 120.65461 | 40190 ft | 506 kts | 358° |
| 2026-05-05 15:29 | 28.08499 | 120.66130 | 40222 ft | 506 kts | 359° |
| 2026-05-05 15:30 | 28.15520 | 120.66824 | 40198 ft | 506 kts | 359° |
| 2026-05-05 15:30 | 28.22540 | 120.67514 | 40199 ft | 506 kts | 359° |
| 2026-05-05 15:31 | 28.29566 | 120.68204 | 40199 ft | 506 kts | 359° |
| 2026-05-05 15:31 | 28.36599 | 120.68894 | 40208 ft | 507 kts | 359° |
| 2026-05-05 15:32 | 28.43629 | 120.69587 | 40204 ft | 507 kts | 359° |
| 2026-05-05 15:32 | 28.50665 | 120.70289 | 40205 ft | 507 kts | 359° |
| 2026-05-05 15:33 | 28.57702 | 120.70999 | 40234 ft | 507 kts | 359° |
| 2026-05-05 15:33 | 28.64691 | 120.71704 | 40202 ft | 507 kts | 359° |
| 2026-05-05 15:34 | 28.71722 | 120.72419 | 40202 ft | 507 kts | 359° |
| 2026-05-05 15:34 | 28.78745 | 120.73193 | 40182 ft | 507 kts | 359° |
| 2026-05-05 15:35 | 28.85756 | 120.73970 | 40185 ft | 507 kts | 359° |
| 2026-05-05 15:35 | 28.92770 | 120.74706 | 40175 ft | 506 kts | 359° |
| 2026-05-05 15:36 | 28.99781 | 120.75417 | 40173 ft | 505 kts | 359° |
| 2026-05-05 15:36 | 29.06782 | 120.76135 | 40187 ft | 505 kts | 359° |
| 2026-05-05 15:37 | 29.13796 | 120.76858 | 40159 ft | 505 kts | 359° |
| 2026-05-05 15:37 | 29.20791 | 120.77580 | 40150 ft | 505 kts | 359° |
| 2026-05-05 15:38 | 29.27790 | 120.78304 | 40153 ft | 505 kts | 359° |
| 2026-05-05 15:38 | 29.34730 | 120.79025 | 39714 ft | 503 kts | 359° |
| 2026-05-05 15:38 | 29.38226 | 120.79387 | 38981 ft | 506 kts | 359° |
| 2026-05-05 15:39 | 29.41762 | 120.79752 | 37938 ft | 513 kts | 359° |
| 2026-05-05 15:39 | 29.45331 | 120.80120 | 36942 ft | 516 kts | 360° |
| 2026-05-05 15:39 | 29.48919 | 120.80493 | 36011 ft | 518 kts | 0° |
| 2026-05-05 15:39 | 29.52503 | 120.80895 | 35128 ft | 519 kts | 4° |
| 2026-05-05 15:40 | 29.56050 | 120.81855 | 34351 ft | 525 kts | 15° |
| 2026-05-05 15:40 | 29.59401 | 120.83547 | 33479 ft | 528 kts | 26° |
| 2026-05-05 15:40 | 29.62439 | 120.85918 | 32660 ft | 529 kts | 37° |
| 2026-05-05 15:40 | 29.65040 | 120.88874 | 31984 ft | 527 kts | 48° |
| 2026-05-05 15:41 | 29.67125 | 120.92265 | 31148 ft | 522 kts | 58° |
| 2026-05-05 15:41 | 29.68857 | 120.95892 | 30353 ft | 513 kts | 60° |
| 2026-05-05 15:41 | 29.70570 | 120.99474 | 29221 ft | 510 kts | 58° |
| 2026-05-05 15:41 | 29.72365 | 121.02953 | 28403 ft | 500 kts | 57° |
| 2026-05-05 15:42 | 29.74189 | 121.06301 | 27633 ft | 490 kts | 55° |
| 2026-05-05 15:42 | 29.76011 | 121.09542 | 26977 ft | 476 kts | 54° |
| 2026-05-05 15:42 | 29.77812 | 121.12704 | 26137 ft | 469 kts | 54° |
| 2026-05-05 15:42 | 29.79589 | 121.15810 | 25328 ft | 461 kts | 54° |
| 2026-05-05 15:43 | 29.81334 | 121.18862 | 24714 ft | 451 kts | 54° |
| 2026-05-05 15:43 | 29.83029 | 121.21833 | 24488 ft | 437 kts | 54° |
| 2026-05-05 15:43 | 29.84669 | 121.24714 | 24247 ft | 424 kts | 54° |
| 2026-05-05 15:43 | 29.86281 | 121.27544 | 24018 ft | 422 kts | 54° |
| 2026-05-05 15:44 | 29.87905 | 121.30363 | 23785 ft | 421 kts | 52° |
| 2026-05-05 15:44 | 29.89824 | 121.32881 | 23561 ft | 415 kts | 40° |
| 2026-05-05 15:44 | 29.92080 | 121.34920 | 23280 ft | 410 kts | 30° |
| 2026-05-05 15:44 | 29.94554 | 121.36506 | 23005 ft | 407 kts | 25° |
| 2026-05-05 15:45 | 29.97015 | 121.38024 | 22722 ft | 405 kts | 26° |
| 2026-05-05 15:45 | 29.99494 | 121.39579 | 22161 ft | 405 kts | 26° |
| 2026-05-05 15:45 | 30.01669 | 121.40949 | 21680 ft | 402 kts | 26° |
| 2026-05-05 15:45 | 30.04167 | 121.42520 | 21106 ft | 397 kts | 26° |
| 2026-05-05 15:46 | 30.06586 | 121.44040 | 20562 ft | 393 kts | 26° |
| 2026-05-05 15:46 | 30.08976 | 121.45541 | 20018 ft | 389 kts | 26° |
| 2026-05-05 15:46 | 30.11341 | 121.47024 | 19472 ft | 385 kts | 26° |
| 2026-05-05 15:46 | 30.13676 | 121.48489 | 18931 ft | 382 kts | 26° |
| 2026-05-05 15:47 | 30.16006 | 121.49951 | 18391 ft | 379 kts | 26° |
| 2026-05-05 15:47 | 30.17537 | 121.50913 | 18008 ft | 377 kts | 26° |
| 2026-05-05 15:47 | 30.20564 | 121.52815 | 17293 ft | 371 kts | 26° |
| 2026-05-05 15:47 | 30.22820 | 121.54234 | 16769 ft | 367 kts | 26° |
| 2026-05-05 15:48 | 30.25051 | 121.55638 | 16247 ft | 363 kts | 26° |
| 2026-05-05 15:48 | 30.27257 | 121.57037 | 15730 ft | 360 kts | 27° |
| 2026-05-05 15:48 | 30.29437 | 121.58449 | 15213 ft | 358 kts | 27° |
| 2026-05-05 15:48 | 30.31598 | 121.59854 | 14701 ft | 355 kts | 27° |
| 2026-05-05 15:49 | 30.33745 | 121.61250 | 14193 ft | 353 kts | 27° |
| 2026-05-05 15:49 | 30.35883 | 121.62638 | 13666 ft | 352 kts | 27° |
| 2026-05-05 15:49 | 30.38008 | 121.64030 | 13154 ft | 349 kts | 29° |
| 2026-05-05 15:49 | 30.40078 | 121.65473 | 12669 ft | 346 kts | 30° |
| 2026-05-05 15:50 | 30.42123 | 121.66933 | 12174 ft | 343 kts | 31° |
| 2026-05-05 15:50 | 30.44150 | 121.68379 | 11687 ft | 341 kts | 31° |
| 2026-05-05 15:50 | 30.46139 | 121.69789 | 11187 ft | 338 kts | 31° |
| 2026-05-05 15:50 | 30.48145 | 121.71206 | 10699 ft | 337 kts | 31° |
| 2026-05-05 15:51 | 30.50138 | 121.72609 | 10361 ft | 330 kts | 31° |
| 2026-05-05 15:51 | 30.52058 | 121.73961 | 10232 ft | 317 kts | 31° |
| 2026-05-05 15:51 | 30.53900 | 121.75258 | 10121 ft | 304 kts | 31° |
| 2026-05-05 15:51 | 30.55700 | 121.76524 | 9902 ft | 299 kts | 30° |
| 2026-05-05 15:52 | 30.57567 | 121.77561 | 9774 ft | 299 kts | 19° |
| 2026-05-05 15:52 | 30.59570 | 121.78184 | 9659 ft | 297 kts | 12° |
| 2026-05-05 15:52 | 30.61591 | 121.78705 | 9532 ft | 299 kts | 12° |
| 2026-05-05 15:52 | 30.63615 | 121.79253 | 9435 ft | 298 kts | 13° |
| 2026-05-05 15:53 | 30.65598 | 121.79796 | 9333 ft | 296 kts | 13° |
| 2026-05-05 15:53 | 30.67595 | 121.80343 | 9230 ft | 295 kts | 13° |
| 2026-05-05 15:53 | 30.69591 | 121.80888 | 9125 ft | 294 kts | 13° |
| 2026-05-05 15:53 | 30.71576 | 121.81430 | 9000 ft | 294 kts | 13° |
| 2026-05-05 15:54 | 30.73560 | 121.81969 | 8930 ft | 291 kts | 13° |
| 2026-05-05 15:54 | 30.75521 | 121.82504 | 8831 ft | 293 kts | 12° |
| 2026-05-05 15:54 | 30.77498 | 121.83042 | 8723 ft | 291 kts | 12° |
| 2026-05-05 15:54 | 30.79475 | 121.83581 | 8611 ft | 292 kts | 12° |
| 2026-05-05 15:55 | 30.81458 | 121.84121 | 8495 ft | 292 kts | 12° |
| 2026-05-05 15:55 | 30.83423 | 121.84657 | 8392 ft | 289 kts | 13° |
| 2026-05-05 15:55 | 30.85363 | 121.85187 | 8278 ft | 289 kts | 12° |
| 2026-05-05 15:55 | 30.87206 | 121.85688 | 8193 ft | 288 kts | 13° |
| 2026-05-05 15:56 | 30.89151 | 121.86219 | 8082 ft | 286 kts | 13° |
| 2026-05-05 15:56 | 30.91092 | 121.86750 | 7965 ft | 287 kts | 13° |
| 2026-05-05 15:56 | 30.93010 | 121.87373 | 7858 ft | 287 kts | 20° |
| 2026-05-05 15:56 | 30.94797 | 121.88394 | 7746 ft | 286 kts | 31° |
| 2026-05-05 15:57 | 30.96497 | 121.89601 | 7653 ft | 286 kts | 31° |
| 2026-05-05 15:57 | 30.98207 | 121.90779 | 7534 ft | 285 kts | 30° |
| 2026-05-05 15:57 | 30.99918 | 121.91944 | 7424 ft | 284 kts | 30° |
| 2026-05-05 15:57 | 31.01618 | 121.93102 | 7323 ft | 283 kts | 30° |
| 2026-05-05 15:58 | 31.03318 | 121.94263 | 7216 ft | 283 kts | 30° |
| 2026-05-05 15:58 | 31.05013 | 121.95423 | 7093 ft | 281 kts | 30° |
| 2026-05-05 15:58 | 31.06688 | 121.96571 | 7077 ft | 276 kts | 31° |
| 2026-05-05 15:58 | 31.08142 | 121.97927 | 6994 ft | 260 kts | 48° |
| 2026-05-05 15:59 | 31.09146 | 121.99656 | 6658 ft | 257 kts | 63° |
| 2026-05-05 15:59 | 31.09963 | 122.01501 | 6590 ft | 256 kts | 62° |
| 2026-05-05 15:59 | 31.10713 | 122.03114 | 6556 ft | 256 kts | 61° |
| 2026-05-05 15:59 | 31.11580 | 122.04941 | 6524 ft | 257 kts | 61° |
| 2026-05-05 16:00 | 31.12447 | 122.06759 | 6486 ft | 257 kts | 61° |
| 2026-05-05 16:00 | 31.13316 | 122.08583 | 6437 ft | 256 kts | 61° |
| 2026-05-05 16:00 | 31.14177 | 122.10395 | 6377 ft | 256 kts | 61° |
| 2026-05-05 16:00 | 31.15071 | 122.12185 | 6305 ft | 255 kts | 55° |
| 2026-05-05 16:01 | 31.16230 | 122.13757 | 6235 ft | 255 kts | 43° |
| 2026-05-05 16:01 | 31.17574 | 122.15113 | 6151 ft | 255 kts | 41° |
| 2026-05-05 16:01 | 31.18902 | 122.16478 | 6073 ft | 255 kts | 42° |
| 2026-05-05 16:01 | 31.20227 | 122.17859 | 6032 ft | 255 kts | 42° |
| 2026-05-05 16:02 | 31.21553 | 122.19243 | 5959 ft | 255 kts | 42° |
| 2026-05-05 16:02 | 31.22880 | 122.20628 | 5876 ft | 255 kts | 41° |
| 2026-05-05 16:02 | 31.24334 | 122.21815 | 5802 ft | 256 kts | 28° |
| 2026-05-05 16:02 | 31.25946 | 122.22682 | 5749 ft | 255 kts | 24° |
| 2026-05-05 16:03 | 31.27539 | 122.23533 | 5657 ft | 256 kts | 25° |
| 2026-05-05 16:03 | 31.29149 | 122.24414 | 5608 ft | 255 kts | 25° |
| 2026-05-05 16:03 | 31.30764 | 122.25301 | 5524 ft | 256 kts | 26° |
| 2026-05-05 16:03 | 31.32380 | 122.26189 | 5459 ft | 257 kts | 25° |
| 2026-05-05 16:04 | 31.34034 | 122.26952 | 5382 ft | 255 kts | 15° |
| 2026-05-05 16:04 | 31.35786 | 122.27307 | 5334 ft | 256 kts | 7° |
| 2026-05-05 16:04 | 31.37552 | 122.27591 | 5258 ft | 254 kts | 8° |
| 2026-05-05 16:04 | 31.39302 | 122.27895 | 5190 ft | 254 kts | 8° |
| 2026-05-05 16:05 | 31.41056 | 122.28206 | 5121 ft | 255 kts | 8° |
| 2026-05-05 16:05 | 31.42816 | 122.28154 | 5033 ft | 257 kts | 342° |
| 2026-05-05 16:05 | 31.44348 | 122.27115 | 5009 ft | 256 kts | 313° |
| 2026-05-05 16:05 | 31.45238 | 122.25353 | 4948 ft | 251 kts | 283° |
| 2026-05-05 16:06 | 31.45357 | 122.23334 | 4890 ft | 249 kts | 266° |
| 2026-05-05 16:06 | 31.45235 | 122.21342 | 4828 ft | 249 kts | 264° |
| 2026-05-05 16:06 | 31.45116 | 122.19321 | 4752 ft | 248 kts | 265° |
| 2026-05-05 16:06 | 31.45046 | 122.17302 | 4679 ft | 249 kts | 266° |
| 2026-05-05 16:07 | 31.45015 | 122.15275 | 4618 ft | 249 kts | 267° |
| 2026-05-05 16:07 | 31.45007 | 122.13254 | 4557 ft | 248 kts | 267° |
| 2026-05-05 16:07 | 31.45008 | 122.11237 | 4483 ft | 247 kts | 267° |
| 2026-05-05 16:07 | 31.45009 | 122.09214 | 4415 ft | 248 kts | 268° |
| 2026-05-05 16:08 | 31.45010 | 122.07206 | 4342 ft | 244 kts | 268° |
| 2026-05-05 16:08 | 31.45012 | 122.05237 | 4308 ft | 238 kts | 267° |
| 2026-05-05 16:08 | 31.45014 | 122.03345 | 4203 ft | 227 kts | 268° |
| 2026-05-05 16:08 | 31.45014 | 122.01507 | 3943 ft | 225 kts | 267° |
| 2026-05-05 16:09 | 31.45013 | 121.99687 | 3794 ft | 222 kts | 267° |
| 2026-05-05 16:09 | 31.45010 | 121.97871 | 3771 ft | 223 kts | 267° |
| 2026-05-05 16:09 | 31.45008 | 121.96051 | 3716 ft | 224 kts | 265° |
| 2026-05-05 16:09 | 31.45006 | 121.94224 | 3692 ft | 224 kts | 266° |
| 2026-05-05 16:10 | 31.44929 | 121.92415 | 3602 ft | 222 kts | 253° |
| 2026-05-05 16:10 | 31.44318 | 121.90812 | 3504 ft | 215 kts | 238° |
| 2026-05-05 16:10 | 31.43634 | 121.89299 | 3382 ft | 217 kts | 239° |
| 2026-05-05 16:10 | 31.42936 | 121.87726 | 3266 ft | 216 kts | 238° |
| 2026-05-05 16:11 | 31.42265 | 121.86205 | 3138 ft | 217 kts | 238° |
| 2026-05-05 16:11 | 31.42111 | 121.85856 | 3111 ft | 217 kts | 238° |